Time;durP1;ratioP1;P1;durP2;ratioP2;P2;SDS_P1;SDS_P2;PMS_P1;PMS_P2;Temp;Humidity;BMP_temperature;BMP_pressure;BME280_temperature;BME280_humidity;BME280_pressure;Samples;Min_cycle;Max_cycle;Signal;HPM_P1;HPM_P2
2023/01/06 00:01:27;;;;;;;6.90;4.45;;;;;;;1.52;86.93;100303.48;1768537;80;25647;-47
2023/01/06 00:04:00;;;;;;;5.10;3.65;;;;;;;1.49;86.92;100311.44;1740748;81;25611;-45
2023/01/06 00:06:29;;;;;;;5.70;4.30;;;;;;;1.51;87.04;100309.86;1764259;81;27794;-46
2023/01/06 00:09:01;;;;;;;5.92;4.20;;;;;;;1.47;86.94;100316.75;1764145;81;25400;-43
2023/01/06 00:11:29;;;;;;;6.58;4.75;;;;;;;1.46;86.95;100326.62;1764212;81;25413;-45
2023/01/06 00:13:56;;;;;;;6.15;4.05;;;;;;;1.46;87.00;100330.62;1764155;81;25613;-48
2023/01/06 00:16:23;;;;;;;9.40;6.28;;;;;;;1.46;86.85;100333.28;1764279;81;25395;-44
2023/01/06 00:18:56;;;;;;;7.33;5.20;;;;;;;1.46;86.91;100325.28;1736320;81;28073;-43
2023/01/06 00:21:23;;;;;;;6.20;4.65;;;;;;;1.45;86.80;100337.52;1764187;81;25583;-44
2023/01/06 00:23:50;;;;;;;6.25;5.10;;;;;;;1.41;86.59;100330.52;1764338;81;25636;-44
2023/01/06 00:26:16;;;;;;;5.92;4.67;;;;;;;1.39;86.68;100335.30;1764348;81;25621;-43
2023/01/06 00:28:42;;;;;;;6.62;4.45;;;;;;;1.39;86.66;100346.50;1764449;81;25623;-43
2023/01/06 00:31:13;;;;;;;7.20;5.00;;;;;;;1.38;86.63;100356.87;1764425;81;28014;-43
2023/01/06 00:33:41;;;;;;;5.75;4.47;;;;;;;1.37;86.56;100364.06;1764337;81;25683;-44
2023/01/06 00:36:10;;;;;;;7.20;4.75;;;;;;;1.36;86.65;100372.30;1764411;81;25567;-44
2023/01/06 00:38:38;;;;;;;5.42;4.47;;;;;;;1.36;86.67;100372.30;1736417;81;26355;-45
2023/01/06 00:43:55;;;;;;;10.13;6.95;;;;;;;1.36;86.76;100373.64;1764478;81;27342;-43
2023/01/06 00:46:25;;;;;;;7.58;4.85;;;;;;;1.37;86.96;100376.59;1736208;81;25833;-44
2023/01/06 00:48:50;;;;;;;8.97;5.03;;;;;;;1.40;87.13;100393.44;1764284;80;25553;-43
2023/01/06 00:51:17;;;;;;;7.05;5.65;;;;;;;1.41;87.15;100394.49;1764329;81;25622;-45
2023/01/06 00:53:43;;;;;;;11.50;7.53;;;;;;;1.41;87.11;100409.16;1736243;81;25624;-44
2023/01/06 00:56:10;;;;;;;10.58;5.95;;;;;;;1.42;86.97;100413.45;1764393;81;27350;-45
2023/01/06 00:58:36;;;;;;;6.92;4.90;;;;;;;1.42;86.95;100408.65;1764317;81;25552;-42
2023/01/06 01:01:06;;;;;;;6.80;4.45;;;;;;;1.44;87.04;100423.87;1764369;81;25349;-42
2023/01/06 01:03:33;;;;;;;;;;;;;;;1.45;86.91;100432.16;1765187;80;25587;-44
2023/01/06 01:06:03;;;;;;;4.75;3.83;;;;;;;1.44;86.79;100426.53;1746349;82;25546;-44
2023/01/06 01:08:30;;;;;;;6.40;4.12;;;;;;;1.40;86.67;100430.22;1746359;82;27369;-44
2023/01/06 01:11:07;;;;;;;7.40;4.37;;;;;;;1.36;86.60;100429.08;1722694;82;25461;-44
2023/01/06 01:13:35;;;;;;;6.92;4.37;;;;;;;1.34;86.49;100433.84;1745384;82;25384;-44
2023/01/06 01:16:08;;;;;;;6.37;4.37;;;;;;;1.34;86.57;100432.52;1746013;82;25684;-44
2023/01/06 01:18:35;;;;;;;6.37;4.37;;;;;;;1.35;86.73;100433.34;1745508;81;25412;-44
2023/01/06 01:21:03;;;;;;;5.60;4.53;;;;;;;1.33;86.68;100444.24;1746098;82;27319;-44
2023/01/06 01:23:29;;;;;;;5.12;3.92;;;;;;;1.33;86.60;100445.58;1746003;82;25562;-44
2023/01/06 01:25:57;;;;;;;8.55;4.05;;;;;;;1.30;86.49;100456.72;1746031;82;25375;-46
2023/01/06 01:28:23;;;;;;;7.10;4.17;;;;;;;1.28;86.27;100464.16;1746048;82;25745;-44
2023/01/06 01:30:59;;;;;;;5.62;4.12;;;;;;;1.23;86.26;100450.22;1746085;82;25612;-44
2023/01/06 01:33:27;;;;;;;4.80;3.72;;;;;;;1.23;86.25;100452.88;1746062;82;27554;-44
2023/01/06 01:35:54;;;;;;;6.17;4.67;;;;;;;1.21;86.17;100469.64;1745988;82;25639;-44
2023/01/06 01:38:20;;;;;;;8.10;4.83;;;;;;;1.19;86.14;100469.59;1746038;82;25381;-44
2023/01/06 01:40:51;;;;;;;6.80;5.28;;;;;;;1.16;85.97;100475.39;1746009;82;25695;-44
2023/01/06 01:43:20;;;;;;;7.17;5.03;;;;;;;1.13;86.10;100484.69;1746098;82;25521;-43
2023/01/06 01:45:50;;;;;;;9.63;6.40;;;;;;;1.11;86.20;100489.46;1746048;82;27375;-45
2023/01/06 01:48:31;;;;;;;10.85;6.30;;;;;;;1.09;86.25;100495.03;1745973;82;25704;-45
2023/01/06 01:51:02;;;;;;;7.08;4.95;;;;;;;1.09;86.41;100500.86;1746070;82;25560;-43
2023/01/06 01:53:39;;;;;;;8.15;5.65;;;;;;;1.08;86.43;100500.06;1745989;82;25641;-43
2023/01/06 01:56:11;;;;;;;7.45;5.45;;;;;;;1.08;86.51;100515.25;1746214;82;25553;-43
2023/01/06 01:59:03;;;;;;;7.47;5.08;;;;;;;1.05;86.58;100519.19;1722801;82;27390;-42
2023/01/06 02:01:31;;;;;;;6.97;5.10;;;;;;;1.07;86.80;100519.78;1744794;82;25598;-43
2023/01/06 02:04:00;;;;;;;7.92;4.42;;;;;;;1.06;86.71;100516.81;1748194;81;25630;-42
2023/01/06 02:06:29;;;;;;;4.87;3.12;;;;;;;1.06;86.74;100525.34;1764450;81;25616;-43
2023/01/06 02:09:10;;;;;;;6.58;4.78;;;;;;;1.07;86.80;100526.94;1764460;81;25632;-43
2023/01/06 02:11:38;;;;;;;6.03;4.70;;;;;;;1.03;86.72;100535.94;1764262;81;27394;-43
2023/01/06 02:14:16;;;;;;;7.80;4.97;;;;;;;1.01;86.62;100550.56;1764405;81;25699;-44
2023/01/06 02:17:03;;;;;;;9.35;4.83;;;;;;;1.00;86.64;100547.60;1764266;81;25523;-44
2023/01/06 02:20:08;;;;;;;6.70;4.90;;;;;;;0.97;86.70;100548.90;1736118;81;25784;-43
2023/01/06 02:23:09;;;;;;;7.22;4.83;;;;;;;0.95;86.64;100556.30;1764348;81;25439;-47
2023/01/06 02:26:31;;;;;;;7.37;5.12;;;;;;;0.94;86.61;100554.70;1759627;81;27321;-42
2023/01/06 02:29:21;;;;;;;6.42;4.58;;;;;;;0.92;86.63;100566.13;1764178;81;25445;-43
2023/01/06 02:32:02;;;;;;;6.75;4.85;;;;;;;0.91;86.56;100563.16;1764064;81;25609;-45
2023/01/06 02:34:49;;;;;;;7.80;4.67;;;;;;;0.87;86.40;100577.48;1764168;81;25661;-44
2023/01/06 02:37:47;;;;;;;6.90;4.87;;;;;;;0.86;86.33;100589.70;1764205;80;25609;-43
2023/01/06 02:40:37;;;;;;;7.12;4.80;;;;;;;0.84;86.36;100602.45;1764267;81;27491;-44
2023/01/06 02:43:44;;;;;;;7.05;4.67;;;;;;;0.82;86.31;100605.84;1763985;81;25440;-43
2023/01/06 02:46:19;;;;;;;8.18;4.85;;;;;;;0.81;86.31;100602.38;1736203;81;25622;-43
2023/01/06 02:49:13;;;;;;;5.22;3.87;;;;;;;0.80;86.28;100614.59;1735807;81;26375;-44
2023/01/06 02:51:53;;;;;;;4.78;4.20;;;;;;;0.77;86.27;100630.54;1764055;81;25562;-44
2023/01/06 02:54:25;;;;;;;5.87;4.55;;;;;;;0.75;86.20;100632.64;1761088;81;27417;-43
2023/01/06 02:57:06;;;;;;;7.05;4.60;;;;;;;0.76;86.29;100634.77;1763530;81;25787;-42
2023/01/06 02:59:41;;;;;;;6.22;4.42;;;;;;;0.76;86.30;100640.89;1763936;81;25435;-44
2023/01/06 03:02:10;;;;;;;8.85;5.00;;;;;;;0.77;86.38;100639.03;1764170;81;25633;-43
2023/01/06 03:04:41;;;;;;;8.15;5.22;;;;;;;0.76;86.32;100644.89;1764265;81;25546;-43
2023/01/06 03:07:10;;;;;;;7.50;5.30;;;;;;;0.76;86.15;100646.75;1764184;81;27439;-44
2023/01/06 03:09:38;;;;;;;7.10;5.15;;;;;;;0.74;86.07;100649.11;1736448;81;25639;-45
2023/01/06 03:12:23;;;;;;;8.00;4.77;;;;;;;0.74;86.06;100647.78;1764484;81;25621;-44
2023/01/06 03:14:54;;;;;;;6.58;4.00;;;;;;;0.73;85.97;100652.84;1764170;80;25756;-43
2023/01/06 03:17:20;;;;;;;9.20;5.08;;;;;;;0.74;86.03;100658.44;1764295;81;25560;-43
2023/01/06 03:19:47;;;;;;;8.33;5.37;;;;;;;0.72;85.94;100661.86;1764301;81;28123;-43
2023/01/06 03:22:15;;;;;;;7.53;4.97;;;;;;;0.73;85.93;100666.16;1764195;81;25538;-43
2023/01/06 03:24:42;;;;;;;7.33;4.87;;;;;;;0.71;85.84;100659.42;1764136;81;25398;-45
2023/01/06 03:27:10;;;;;;;8.28;6.05;;;;;;;0.72;85.89;100669.84;1764176;81;25596;-45
2023/01/06 03:29:38;;;;;;;7.47;5.12;;;;;;;0.73;85.82;100673.31;1764321;81;25408;-42
2023/01/06 03:32:22;;;;;;;8.48;5.12;;;;;;;0.72;85.85;100672.51;1764193;81;28090;-43
2023/01/06 03:35:15;;;;;;;7.35;4.92;;;;;;;0.71;85.87;100673.54;1763188;81;25565;-44
2023/01/06 03:38:11;;;;;;;7.03;4.65;;;;;;;0.72;85.91;100668.52;1764355;81;25556;-45
2023/01/06 03:41:01;;;;;;;8.40;4.62;;;;;;;0.72;85.93;100672.51;1764220;81;25679;-44
2023/01/06 03:43:41;;;;;;;6.08;4.58;;;;;;;0.74;85.77;100681.59;1764259;81;25596;-43
2023/01/06 03:46:34;;;;;;;8.90;5.80;;;;;;;0.74;85.88;100676.27;1763828;81;29480;-43
2023/01/06 03:49:09;;;;;;;7.67;5.12;;;;;;;0.75;86.07;100680.56;1763470;81;25431;-44
2023/01/06 03:51:56;;;;;;;7.47;5.35;;;;;;;0.77;86.04;100689.62;1764278;81;25557;-43
2023/01/06 03:54:31;;;;;;;6.87;4.17;;;;;;;0.77;85.99;100693.63;1736139;81;25550;-43
2023/01/06 03:57:21;;;;;;;7.00;5.05;;;;;;;0.77;85.96;100692.29;1764178;81;25557;-43
2023/01/06 03:59:54;;;;;;;9.08;6.10;;;;;;;0.77;85.99;100693.12;1764362;81;28178;-44
2023/01/06 04:02:22;;;;;;;9.98;5.95;;;;;;;0.78;86.06;100697.91;1735082;81;25779;-44
2023/01/06 04:05:13;;;;;;;9.78;5.12;;;;;;;0.78;85.86;100700.58;1764343;81;25439;-46
2023/01/06 04:07:42;;;;;;;7.85;4.95;;;;;;;0.78;85.98;100710.70;1764414;81;25631;-43
2023/01/06 04:10:10;;;;;;;7.08;4.90;;;;;;;0.80;86.08;100706.47;1764576;81;25422;-45
2023/01/06 04:12:38;;;;;;;5.00;3.30;;;;;;;0.79;85.98;100709.67;1764615;81;27893;-42
2023/01/06 04:15:13;;;;;;;7.08;5.08;;;;;;;0.80;86.00;100714.47;1764246;81;25425;-43
2023/01/06 04:17:42;;;;;;;8.78;5.35;;;;;;;0.77;85.82;100716.25;1764351;81;25529;-44
2023/01/06 04:20:16;;;;;;;7.50;5.10;;;;;;;0.80;85.64;100727.78;1764584;81;25659;-44
2023/01/06 04:22:43;;;;;;;8.93;5.33;;;;;;;0.78;85.55;100726.67;1764381;81;25477;-45
2023/01/06 04:25:10;;;;;;;7.10;4.97;;;;;;;0.78;85.61;100733.34;1764361;81;28004;-46
2023/01/06 04:27:36;;;;;;;6.30;4.80;;;;;;;0.78;85.56;100728.02;1764213;81;25435;-46
2023/01/06 04:30:06;;;;;;;7.17;4.67;;;;;;;0.77;85.39;100731.73;1764326;81;25589;-43
2023/01/06 04:32:32;;;;;;;9.08;5.17;;;;;;;0.75;85.12;100731.16;1764467;81;26159;-43
2023/01/06 04:34:58;;;;;;;6.95;4.58;;;;;;;0.74;85.17;100725.53;1764286;81;25617;-42
2023/01/06 04:37:24;;;;;;;7.50;5.33;;;;;;;0.73;85.20;100725.23;1764312;81;27411;-43
2023/01/06 04:39:50;;;;;;;8.05;5.03;;;;;;;0.74;85.24;100729.53;1764214;81;25426;-42
2023/01/06 04:42:16;;;;;;;8.83;6.20;;;;;;;0.76;85.29;100726.64;1764305;81;25435;-48
2023/01/06 04:44:42;;;;;;;8.53;6.25;;;;;;;0.77;85.31;100726.91;1735990;81;34791;-42
2023/01/06 04:47:11;;;;;;;7.97;5.08;;;;;;;0.75;85.30;100725.84;1764335;81;25564;-45
2023/01/06 04:49:37;;;;;;;7.87;5.33;;;;;;;0.74;84.92;100730.33;1764304;81;27289;-43
2023/01/06 04:52:07;;;;;;;7.70;5.08;;;;;;;0.73;84.90;100722.08;1764274;81;25556;-42
2023/01/06 04:54:35;;;;;;;7.55;5.47;;;;;;;0.73;85.01;100720.74;1764338;81;25668;-43
2023/01/06 04:57:02;;;;;;;10.15;5.15;;;;;;;0.74;85.03;100720.21;1764286;81;25620;-43
2023/01/06 04:59:29;;;;;;;9.00;6.62;;;;;;;0.74;85.06;100721.02;1764298;81;25395;-42
2023/01/06 05:01:55;;;;;;;8.10;6.22;;;;;;;0.73;84.92;100722.58;1735964;81;27223;-42
2023/01/06 05:04:21;;;;;;;8.30;5.95;;;;;;;0.72;84.87;100720.44;1764191;81;25622;-43
2023/01/06 05:06:47;;;;;;;7.85;5.67;;;;;;;0.72;84.89;100722.30;1764261;80;25545;-43
2023/01/06 05:09:13;;;;;;;9.58;5.97;;;;;;;0.72;85.02;100718.31;1764228;81;25555;-43
2023/01/06 05:11:40;;;;;;;7.20;5.12;;;;;;;0.70;85.03;100718.53;1764323;81;25537;-43
2023/01/06 05:14:06;;;;;;;9.80;7.03;;;;;;;0.72;84.99;100728.43;1764248;81;29527;-43
2023/01/06 05:16:35;;;;;;;8.65;6.37;;;;;;;0.72;85.06;100729.77;1764190;81;25422;-45
2023/01/06 05:19:01;;;;;;;9.30;6.10;;;;;;;0.71;85.03;100732.66;1764330;81;25487;-44
2023/01/06 05:21:29;;;;;;;8.58;5.55;;;;;;;0.71;85.00;100732.13;1736386;81;27824;-44
2023/01/06 05:23:55;;;;;;;8.60;5.60;;;;;;;0.72;84.97;100728.43;1764334;81;25631;-45
2023/01/06 05:26:26;;;;;;;7.45;5.30;;;;;;;0.71;84.89;100743.30;1736243;81;28304;-44
2023/01/06 05:28:54;;;;;;;10.18;6.20;;;;;;;0.72;84.93;100743.08;1764233;81;25598;-43
2023/01/06 05:31:22;;;;;;;8.35;6.37;;;;;;;0.73;85.13;100746.54;1764309;81;25636;-44
2023/01/06 05:33:48;;;;;;;10.53;5.75;;;;;;;0.74;84.98;100748.17;1764218;81;26176;-44
2023/01/06 05:36:17;;;;;;;9.00;5.78;;;;;;;0.70;84.64;100758.48;1764296;81;25608;-44
2023/01/06 05:38:45;;;;;;;5.67;4.08;;;;;;;0.66;84.29;100769.28;1764446;81;27338;-45
2023/01/06 05:41:12;;;;;;;6.78;5.22;;;;;;;0.65;84.38;100768.22;1711871;81;25634;-44
2023/01/06 05:43:40;;;;;;;6.85;5.12;;;;;;;0.62;84.32;100765.48;1764281;81;25480;-44
2023/01/06 05:46:10;;;;;;;6.70;5.15;;;;;;;0.60;84.22;100768.89;1764216;81;25644;-46
2023/01/06 05:48:38;;;;;;;8.88;7.42;;;;;;;0.59;84.18;100767.79;1764347;81;25553;-44
2023/01/06 05:51:13;;;;;;;7.47;5.80;;;;;;;0.58;84.36;100768.82;1764285;81;27903;-44
2023/01/06 05:53:43;;;;;;;7.62;4.87;;;;;;;0.57;84.51;100774.67;1764157;81;27159;-43
2023/01/06 05:56:14;;;;;;;9.75;5.97;;;;;;;0.58;84.62;100772.81;1764282;81;25559;-43
2023/01/06 05:58:48;;;;;;;7.72;5.28;;;;;;;0.57;84.37;100776.01;1764237;81;26287;-42
2023/01/06 06:01:23;;;;;;;11.05;6.78;;;;;;;0.57;84.43;100778.67;1736291;81;25478;-42
2023/01/06 06:03:52;;;;;;;8.65;6.45;;;;;;;0.55;84.13;100783.42;1764308;81;27313;-43
2023/01/06 06:06:23;;;;;;;6.47;5.10;;;;;;;0.53;83.98;100785.50;1764232;81;33042;-44
2023/01/06 06:08:50;;;;;;;6.35;4.50;;;;;;;0.49;83.64;100794.44;1764287;81;25605;-45
2023/01/06 06:11:19;;;;;;;8.20;5.17;;;;;;;0.45;83.52;100797.28;1764199;81;27804;-46
2023/01/06 06:13:52;;;;;;;6.75;5.15;;;;;;;0.43;83.32;100803.89;1764417;81;25450;-44
2023/01/06 06:16:24;;;;;;;8.10;6.22;;;;;;;0.39;83.17;100804.05;1764275;81;27418;-46
2023/01/06 06:18:57;;;;;;;7.05;4.95;;;;;;;0.33;83.14;100802.58;1764214;81;25458;-43
2023/01/06 06:21:28;;;;;;;6.87;4.58;;;;;;;0.30;83.27;100803.03;1764307;81;25621;-44
2023/01/06 06:23:57;;;;;;;7.55;5.28;;;;;;;0.26;83.23;100811.19;1764229;81;25623;-43
2023/01/06 06:26:25;;;;;;;;;;;;;;;0.22;83.21;100821.18;1766903;81;25548;-45
2023/01/06 06:28:52;;;;;;;7.95;5.37;;;;;;;0.18;83.31;100815.50;1764275;81;27500;-43
2023/01/06 06:31:23;;;;;;;6.72;5.22;;;;;;;0.14;83.37;100813.02;1735871;81;25649;-45
2023/01/06 06:33:55;;;;;;;6.75;4.80;;;;;;;0.08;83.36;100812.05;1764251;81;25547;-43
2023/01/06 06:36:23;;;;;;;8.33;5.80;;;;;;;0.05;83.44;100821.01;1736145;81;25591;-42
2023/01/06 06:38:52;;;;;;;6.47;5.22;;;;;;;0.03;83.58;100823.09;1764249;81;25557;-44
2023/01/06 06:41:21;;;;;;;7.00;5.50;;;;;;;-0.01;83.53;100837.36;1764390;81;27868;-43
2023/01/06 06:43:49;;;;;;;6.15;4.47;;;;;;;-0.04;83.50;100844.45;1764149;81;25538;-42
2023/01/06 06:46:18;;;;;;;7.53;5.15;;;;;;;-0.06;83.62;100853.17;1736158;81;25591;-42
2023/01/06 06:48:44;;;;;;;6.85;4.33;;;;;;;-0.07;83.78;100856.86;1764369;81;25693;-43
2023/01/06 06:51:15;;;;;;;10.20;5.22;;;;;;;-0.07;83.99;100856.36;1712070;81;25486;-43
2023/01/06 06:53:44;;;;;;;8.48;4.30;;;;;;;-0.06;83.97;100856.64;1764252;81;27321;-43
2023/01/06 06:56:13;;;;;;;6.20;4.55;;;;;;;-0.06;83.99;100863.29;1764162;81;25640;-43
2023/01/06 06:58:40;;;;;;;5.50;4.40;;;;;;;-0.06;84.03;100865.15;1764383;81;26594;-45
2023/01/06 07:01:11;;;;;;;5.08;4.20;;;;;;;-0.03;84.09;100872.69;1764150;81;25681;-44
2023/01/06 07:03:39;;;;;;;6.42;4.30;;;;;;;-0.05;83.80;100872.91;1764263;81;25607;-44
2023/01/06 07:06:10;;;;;;;8.40;4.55;;;;;;;-0.06;83.94;100880.58;1758232;81;27422;-44
2023/01/06 07:08:38;;;;;;;5.80;4.53;;;;;;;-0.06;84.04;100884.56;1745972;82;25617;-44
2023/01/06 07:11:05;;;;;;;6.42;4.80;;;;;;;-0.06;83.88;100891.22;1746005;82;25418;-45
2023/01/06 07:13:32;;;;;;;5.00;4.35;;;;;;;-0.10;83.82;100894.04;1745981;82;25603;-43
2023/01/06 07:16:03;;;;;;;6.58;4.90;;;;;;;-0.10;84.00;100888.72;1746028;82;25380;-44
2023/01/06 07:18:29;;;;;;;8.35;5.15;;;;;;;-0.07;84.21;100886.95;1746008;82;27397;-44
2023/01/06 07:20:55;;;;;;;9.13;5.90;;;;;;;-0.05;84.37;100887.53;1745917;82;25557;-43
2023/01/06 07:23:23;;;;;;;8.63;5.50;;;;;;;-0.04;84.27;100891.80;1745997;82;25584;-46
2023/01/06 07:25:57;;;;;;;6.37;4.17;;;;;;;-0.02;84.13;100895.56;1722303;82;26371;-45
2023/01/06 07:28:27;;;;;;;8.55;5.22;;;;;;;-0.01;84.18;100898.53;1746061;82;25612;-45
2023/01/06 07:30:54;;;;;;;8.10;4.90;;;;;;;-0.02;84.15;100886.26;1745999;82;27275;-43
2023/01/06 07:33:23;;;;;;;10.20;6.45;;;;;;;0.02;84.15;100895.44;1745985;82;27205;-43
2023/01/06 07:35:56;;;;;;;7.87;4.78;;;;;;;0.02;84.13;100894.59;1746250;82;25462;-43
2023/01/06 07:38:24;;;;;;;9.63;5.37;;;;;;;0.04;84.00;100892.02;1746264;82;25616;-46
2023/01/06 07:40:52;;;;;;;8.65;4.97;;;;;;;0.05;83.92;100900.31;1746163;82;25447;-46
2023/01/06 07:43:18;;;;;;;7.67;5.08;;;;;;;0.06;83.96;100896.59;1746147;82;27384;-44
2023/01/06 07:45:49;;;;;;;6.05;4.37;;;;;;;0.06;83.99;100892.61;1746058;82;25622;-44
2023/01/06 07:48:16;;;;;;;8.40;5.78;;;;;;;0.07;84.05;100888.92;1746108;82;25408;-44
2023/01/06 07:50:44;;;;;;;6.75;4.15;;;;;;;0.09;84.05;100896.69;1746095;82;25637;-44
2023/01/06 07:53:11;;;;;;;9.33;5.45;;;;;;;0.12;84.09;100902.86;1746174;82;25383;-46
2023/01/06 07:55:38;;;;;;;8.53;5.17;;;;;;;0.12;84.09;100897.04;1746160;82;29501;-44
2023/01/06 07:58:07;;;;;;;9.10;5.40;;;;;;;0.14;84.04;100899.48;1746010;82;25398;-44
2023/01/06 08:00:35;;;;;;;9.35;6.45;;;;;;;0.14;84.00;100898.15;1746279;82;25490;-45
2023/01/06 08:03:07;;;;;;;8.15;5.22;;;;;;;0.16;83.98;100901.39;1746072;82;25710;-45
2023/01/06 08:05:42;;;;;;;7.30;4.67;;;;;;;0.20;84.03;100911.06;1746156;82;25467;-44
2023/01/06 08:08:11;;;;;;;9.10;6.00;;;;;;;0.22;84.04;100910.31;1767380;81;27992;-44
2023/01/06 08:10:41;;;;;;;6.17;4.47;;;;;;;0.24;84.13;100913.06;1767416;81;25612;-45
2023/01/06 08:13:09;;;;;;;8.75;5.33;;;;;;;0.26;84.24;100916.30;1767484;81;25383;-43
2023/01/06 08:15:39;;;;;;;6.30;4.33;;;;;;;0.29;84.22;100908.37;1767537;81;25699;-43
2023/01/06 08:18:08;;;;;;;8.38;6.67;;;;;;;0.33;84.05;100911.70;1767394;81;25597;-45
2023/01/06 08:20:34;;;;;;;7.20;5.08;;;;;;;0.34;83.83;100901.85;1767596;81;27380;-45
2023/01/06 08:23:02;;;;;;;9.95;5.60;;;;;;;0.35;83.95;100902.96;1767365;81;25640;-45
2023/01/06 08:25:28;;;;;;;15.10;6.40;;;;;;;0.38;83.91;100895.59;1767333;81;25599;-44
2023/01/06 08:27:58;;;;;;;10.45;6.05;;;;;;;0.41;83.86;100899.10;1767359;81;25651;-43
2023/01/06 08:30:27;;;;;;;8.23;4.67;;;;;;;0.43;83.82;100906.37;1767418;81;25390;-43
2023/01/06 08:32:59;;;;;;;9.85;5.75;;;;;;;0.39;83.57;100901.98;1767359;81;27358;-45
2023/01/06 08:35:27;;;;;;;8.83;5.25;;;;;;;0.45;83.57;100927.71;1741086;81;25700;-45
2023/01/06 08:37:53;;;;;;;7.95;5.20;;;;;;;0.48;83.66;100931.79;1741159;81;25425;-45
2023/01/06 08:40:20;;;;;;;10.75;7.28;;;;;;;0.49;83.60;100931.53;1767255;81;25675;-44
2023/01/06 08:42:48;;;;;;;9.13;6.28;;;;;;;0.49;83.42;100928.87;1767334;81;25618;-44
2023/01/06 08:45:15;;;;;;;10.70;7.67;;;;;;;0.52;83.26;100931.61;1767312;81;27423;-48
2023/01/06 08:47:41;;;;;;;9.98;5.42;;;;;;;0.51;83.19;100933.47;1767265;81;25576;-43
2023/01/06 08:50:11;;;;;;;7.85;4.87;;;;;;;0.53;83.35;100935.91;1741080;81;25582;-43
2023/01/06 08:52:37;;;;;;;7.25;5.03;;;;;;;0.55;83.39;100941.29;1741333;81;26177;-44
2023/01/06 08:55:05;;;;;;;10.40;6.03;;;;;;;0.57;83.44;100933.61;1767467;81;25616;-45
2023/01/06 08:57:34;;;;;;;10.80;6.87;;;;;;;0.58;83.15;100936.05;1741404;81;27406;-43
2023/01/06 09:00:04;;;;;;;10.18;6.12;;;;;;;0.59;82.96;100938.98;1767251;81;25979;-44
2023/01/06 09:02:32;;;;;;;8.20;4.83;;;;;;;0.60;82.77;100937.16;1767321;81;25465;-44
2023/01/06 09:04:58;;;;;;;7.60;5.05;;;;;;;0.60;82.71;100939.28;1767288;81;25615;-44
2023/01/06 09:07:25;;;;;;;8.98;5.53;;;;;;;0.61;82.77;100937.43;1754847;80;25526;-45
2023/01/06 09:09:53;;;;;;;10.68;6.75;;;;;;;0.61;82.80;100932.10;1746070;81;29559;-43
2023/01/06 09:12:19;;;;;;;8.05;5.53;;;;;;;0.61;82.80;100938.76;1746024;82;25233;-43
2023/01/06 09:14:47;;;;;;;7.75;5.08;;;;;;;0.62;82.53;100935.07;1746696;82;25655;-45
2023/01/06 09:17:13;;;;;;;7.58;4.97;;;;;;;0.62;82.47;100927.08;1745758;82;25681;-45
2023/01/06 09:19:39;;;;;;;7.90;4.87;;;;;;;0.63;82.62;100934.02;1722665;82;25667;-44
2023/01/06 09:22:06;;;;;;;22.02;10.45;;;;;;;0.63;82.55;100930.02;1746270;82;27322;-44
2023/01/06 09:24:32;;;;;;;8.55;5.12;;;;;;;0.62;82.58;100924.42;1746003;82;25444;-44
2023/01/06 09:26:59;;;;;;;7.33;4.78;;;;;;;0.62;82.53;100923.09;1746152;82;25396;-43
2023/01/06 09:29:25;;;;;;;5.28;4.17;;;;;;;0.62;82.68;100927.08;1746164;82;25969;-43
2023/01/06 09:31:51;;;;;;;7.05;4.67;;;;;;;0.62;82.46;100925.22;1722570;82;25458;-43
2023/01/06 09:34:19;;;;;;;8.05;6.30;;;;;;;0.60;82.27;100923.31;1746011;82;27372;-44
2023/01/06 09:36:46;;;;;;;8.23;6.10;;;;;;;0.62;82.38;100920.42;1746028;82;25916;-42
2023/01/06 09:39:15;;;;;;;10.98;5.70;;;;;;;0.58;81.88;100924.06;1746148;82;25432;-43
2023/01/06 09:42:18;;;;;;;9.60;6.33;;;;;;;0.55;82.30;100919.19;1746237;82;26339;-45
2023/01/06 09:45:07;;;;;;;8.90;6.22;;;;;;;0.59;82.48;100926.20;1722966;82;25575;-44
2023/01/06 09:47:42;;;;;;;9.15;6.55;;;;;;;0.61;82.48;100918.79;1734507;82;28113;-44
2023/01/06 09:50:22;;;;;;;7.75;6.08;;;;;;;0.63;82.37;100915.37;1745982;82;25645;-44
2023/01/06 09:52:57;;;;;;;8.45;6.22;;;;;;;0.63;82.08;100918.03;1746095;82;25440;-42
2023/01/06 09:55:33;;;;;;;10.82;6.95;;;;;;;0.58;81.48;100917.41;1745990;82;26660;-44
2023/01/06 09:58:15;;;;;;;9.28;5.75;;;;;;;0.60;81.59;100923.84;1746054;82;25594;-45
2023/01/06 10:00:46;;;;;;;12.98;8.20;;;;;;;0.59;81.75;100915.02;1745989;82;27372;-44
2023/01/06 10:03:21;;;;;;;10.70;6.75;;;;;;;0.58;81.57;100912.58;1745108;81;25533;-45
2023/01/06 10:06:11;;;;;;;8.50;5.72;;;;;;;0.61;81.74;100912.13;1746091;82;25670;-45
2023/01/06 10:08:41;;;;;;;;;;;;;;;0.62;81.55;100915.91;1748552;81;25594;-45
2023/01/06 10:11:19;;;;;;;;;;;;;;;0.61;81.17;100915.60;1748672;82;25392;-45
2023/01/06 10:13:55;;;;;;;11.68;6.72;;;;;;;0.58;80.94;100908.59;1744324;82;28120;-46
2023/01/06 10:16:56;;;;;;;6.53;4.58;;;;;;;0.57;81.40;100907.79;1745929;82;25626;-44
2023/01/06 10:19:44;;;;;;;8.70;6.47;;;;;;;0.57;81.14;100909.12;1746056;82;25626;-44
2023/01/06 10:22:49;;;;;;;9.73;7.50;;;;;;;0.57;81.26;100903.80;1740859;82;26169;-43
2023/01/06 10:25:26;;;;;;;9.25;6.72;;;;;;;0.53;80.99;100898.64;1745281;82;25387;-44
2023/01/06 10:28:12;;;;;;;11.15;7.75;;;;;;;0.50;81.16;100896.43;1746079;82;27400;-43
2023/01/06 10:30:51;;;;;;;10.15;7.40;;;;;;;0.50;81.17;100894.57;1745339;82;25387;-44
2023/01/06 10:33:29;;;;;;;11.90;7.17;;;;;;;0.49;81.07;100886.81;1746188;82;25549;-44
2023/01/06 10:35:59;;;;;;;9.28;6.60;;;;;;;0.46;80.59;100887.26;1746028;82;25685;-45
2023/01/06 10:38:31;;;;;;;10.68;7.72;;;;;;;0.45;81.12;100884.32;1722823;82;25573;-44
2023/01/06 10:41:03;;;;;;;10.48;7.72;;;;;;;0.47;81.37;100880.38;1745812;82;27421;-46
2023/01/06 10:43:33;;;;;;;14.80;8.68;;;;;;;0.48;81.16;100883.34;1745921;82;25813;-44
2023/01/06 10:45:59;;;;;;;11.22;6.92;;;;;;;0.49;81.22;100868.17;1746073;82;25613;-44
2023/01/06 10:48:29;;;;;;;11.28;8.08;;;;;;;0.46;80.98;100866.80;1745959;82;25611;-43
2023/01/06 10:51:01;;;;;;;15.53;8.35;;;;;;;0.45;81.00;100873.67;1746061;82;25545;-45
2023/01/06 10:53:27;;;;;;;13.03;8.85;;;;;;;0.48;81.18;100871.89;1743878;82;27319;-43
2023/01/06 10:55:59;;;;;;;9.65;7.35;;;;;;;0.50;81.24;100869.81;1745872;82;25559;-45
2023/01/06 10:58:49;;;;;;;12.95;8.98;;;;;;;0.51;80.95;100865.59;1746035;82;25442;-44
2023/01/06 11:01:25;;;;;;;13.10;8.43;;;;;;;0.53;81.31;100865.37;1746112;82;25641;-44
2023/01/06 11:04:12;;;;;;;9.05;7.72;;;;;;;0.56;81.31;100870.21;1746013;82;25590;-44
2023/01/06 11:06:46;;;;;;;11.30;8.03;;;;;;;0.57;81.16;100873.70;1745950;82;27333;-44
2023/01/06 11:09:39;;;;;;;10.32;6.85;;;;;;;0.53;80.97;100880.01;1745950;82;25473;-44
2023/01/06 11:12:24;;;;;;;8.73;6.00;;;;;;;0.49;80.88;100878.30;1745975;82;25613;-44
2023/01/06 11:15:02;;;;;;;9.48;5.75;;;;;;;0.47;80.82;100865.73;1745983;82;25747;-45
2023/01/06 11:17:32;;;;;;;8.15;5.53;;;;;;;0.48;81.13;100861.25;1746112;82;25420;-45
2023/01/06 11:20:18;;;;;;;10.48;6.40;;;;;;;0.51;81.38;100855.45;1745977;82;27297;-45
2023/01/06 11:22:47;;;;;;;9.43;6.45;;;;;;;0.52;81.12;100851.75;1743940;82;25587;-45
2023/01/06 11:25:31;;;;;;;10.27;5.93;;;;;;;0.49;80.97;100848.21;1746184;82;25584;-44
2023/01/06 11:28:18;;;;;;;9.48;6.72;;;;;;;0.49;80.78;100846.87;1745258;82;26298;-45
2023/01/06 11:30:56;;;;;;;5.55;3.87;;;;;;;0.46;80.86;100848.16;1746320;82;25558;-47
2023/01/06 11:33:26;;;;;;;10.90;7.60;;;;;;;0.46;81.32;100848.66;1745882;82;27891;-45
2023/01/06 11:35:57;;;;;;;11.53;7.25;;;;;;;0.45;81.37;100845.72;1745952;82;25654;-45
2023/01/06 11:38:25;;;;;;;15.60;8.35;;;;;;;0.47;81.50;100844.97;1746006;82;25400;-43
2023/01/06 11:40:55;;;;;;;14.80;7.60;;;;;;;0.45;81.33;100843.06;1745888;82;25745;-44
2023/01/06 11:43:32;;;;;;;12.13;7.60;;;;;;;0.46;81.36;100838.02;1745957;82;25490;-44
2023/01/06 11:46:06;;;;;;;11.38;7.30;;;;;;;0.46;81.27;100840.17;1746028;82;29465;-45
2023/01/06 11:48:49;;;;;;;11.75;7.58;;;;;;;0.46;81.55;100831.36;1745871;82;25599;-45
2023/01/06 11:51:41;;;;;;;12.73;8.15;;;;;;;0.48;81.48;100825.31;1746053;82;25394;-45
2023/01/06 11:54:31;;;;;;;14.03;8.40;;;;;;;0.48;81.58;100825.31;1665618;85;25843;-44
2023/01/06 11:57:26;;;;;;;13.40;8.73;;;;;;;0.48;81.36;100823.98;1685954;83;25520;-45
2023/01/06 12:00:37;;;;;;;13.15;8.38;;;;;;;0.48;81.67;100815.47;1693078;84;28085;-46